Time;durP1;ratioP1;P1;durP2;ratioP2;P2;SDS_P1;SDS_P2;PMS_P1;PMS_P2;Temp;Humidity;BMP_temperature;BMP_pressure;BME280_temperature;BME280_humidity;BME280_pressure;Samples;Min_cycle;Max_cycle;Signal;HPM_P1;HPM_P2
2023/10/18 00:00:58;;;;;;;4.20;3.90;;;;;;;;;;5102049;27;20050;-66
2023/10/18 00:03:29;;;;;;;3.95;3.65;;;;;;;;;;5102236;27;20546;-66
2023/10/18 00:05:59;;;;;;;4.20;3.90;;;;;;;;;;5096810;27;20443;-66
2023/10/18 00:08:28;;;;;;;4.15;3.85;;;;;;;;;;5099687;28;20659;-66
2023/10/18 00:11:00;;;;;;;3.95;3.65;;;;;;;;;;5101060;27;20050;-66
2023/10/18 00:13:30;;;;;;;4.20;3.90;;;;;;;;;;5102135;28;20051;-66
2023/10/18 00:16:02;;;;;;;3.78;3.47;;;;;;;;;;5100411;27;20128;-66
2023/10/18 00:18:32;;;;;;;4.35;3.95;;;;;;;;;;5099822;28;20484;-66
2023/10/18 00:21:02;;;;;;;3.95;3.67;;;;;;;;;;5100340;27;20058;-66
2023/10/18 00:23:31;;;;;;;4.47;4.18;;;;;;;;;;5099803;28;20093;-66
2023/10/18 00:26:00;;;;;;;3.83;3.60;;;;;;;;;;5102468;27;20093;-66
2023/10/18 00:28:29;;;;;;;4.22;3.92;;;;;;;;;;5100938;28;20186;-66
2023/10/18 00:30:57;;;;;;;4.20;3.90;;;;;;;;;;5101365;27;20043;-66
2023/10/18 00:33:26;;;;;;;3.70;3.50;;;;;;;;;;5100410;28;20051;-66
2023/10/18 00:35:57;;;;;;;4.40;4.00;;;;;;;;;;5099802;28;20043;-66
2023/10/18 00:38:28;;;;;;;3.88;3.58;;;;;;;;;;5099853;28;20600;-66
2023/10/18 00:40:56;;;;;;;3.95;3.65;;;;;;;;;;5095522;27;20424;-66
2023/10/18 00:43:26;;;;;;;4.30;3.90;;;;;;;;;;5097939;28;20439;-66
2023/10/18 00:45:56;;;;;;;3.75;3.53;;;;;;;;;;5098288;28;20039;-66
2023/10/18 00:48:26;;;;;;;4.97;4.47;;;;;;;;;;5099702;27;20063;-66
2023/10/18 00:50:57;;;;;;;3.83;3.53;;;;;;;;;;5101161;28;20183;-66
2023/10/18 00:53:30;;;;;;;4.45;4.05;;;;;;;;;;5099691;28;20186;-66
2023/10/18 00:56:00;;;;;;;4.10;3.80;;;;;;;;;;5099682;27;20040;-66
2023/10/18 00:58:30;;;;;;;3.95;3.65;;;;;;;;;;5098014;28;20055;-66
2023/10/18 01:00:59;;;;;;;3.90;3.60;;;;;;;;;;5100790;28;20058;-66
2023/10/18 01:03:32;;;;;;;4.20;3.80;;;;;;;;;;5098627;27;20054;-66
2023/10/18 01:06:03;;;;;;;4.35;3.95;;;;;;;;;;5097678;27;20052;-66
2023/10/18 01:08:33;;;;;;;4.97;4.03;;;;;;;;;;5100274;28;20059;-66
2023/10/18 01:11:06;;;;;;;4.90;4.50;;;;;;;;;;5098201;28;20471;-66
2023/10/18 01:13:37;;;;;;;4.80;4.40;;;;;;;;;;5100321;27;20043;-65
2023/10/18 01:16:13;;;;;;;4.28;3.97;;;;;;;;;;5101129;27;20056;-66
2023/10/18 01:18:43;;;;;;;4.40;4.10;;;;;;;;;;5100536;27;20052;-66
2023/10/18 01:21:14;;;;;;;4.35;4.05;;;;;;;;;;5103342;27;20081;-66
2023/10/18 01:23:49;;;;;;;4.63;4.30;;;;;;;;;;5100192;27;20075;-65
2023/10/18 01:26:19;;;;;;;4.00;3.70;;;;;;;;;;5098977;27;20056;-66
2023/10/18 01:28:48;;;;;;;4.95;3.85;;;;;;;;;;5097267;27;20309;-66
2023/10/18 01:31:17;;;;;;;4.88;4.53;;;;;;;;;;5099599;27;20047;-66
2023/10/18 01:33:47;;;;;;;4.75;4.35;;;;;;;;;;5101893;27;20526;-66
2023/10/18 01:36:16;;;;;;;4.35;3.95;;;;;;;;;;5097232;27;20474;-65
2023/10/18 01:38:46;;;;;;;4.20;3.97;;;;;;;;;;5098049;27;20184;-65
2023/10/18 01:41:16;;;;;;;4.18;3.88;;;;;;;;;;5101152;27;20377;-66
2023/10/18 01:43:47;;;;;;;4.10;3.80;;;;;;;;;;5094824;28;20046;-66
2023/10/18 01:46:16;;;;;;;4.30;3.90;;;;;;;;;;5096190;27;20556;-66
2023/10/18 01:48:50;;;;;;;4.20;3.90;;;;;;;;;;5101333;27;20408;-66
2023/10/18 01:51:19;;;;;;;4.55;4.22;;;;;;;;;;5098042;27;20048;-65
2023/10/18 01:53:50;;;;;;;4.07;3.75;;;;;;;;;;5098335;27;20040;-66
2023/10/18 01:56:21;;;;;;;4.72;4.32;;;;;;;;;;5096925;27;20047;-66
2023/10/18 01:58:51;;;;;;;4.35;4.05;;;;;;;;;;5097262;28;20155;-66
2023/10/18 02:01:19;;;;;;;4.53;4.13;;;;;;;;;;5097997;27;20124;-66
2023/10/18 02:03:50;;;;;;;4.35;3.78;;;;;;;;;;5098124;27;20096;-66
2023/10/18 02:06:20;;;;;;;4.20;3.80;;;;;;;;;;5096935;27;20150;-66
2023/10/18 02:08:50;;;;;;;4.78;4.35;;;;;;;;;;5104062;27;20087;-66
2023/10/18 02:11:19;;;;;;;4.63;4.32;;;;;;;;;;5098684;28;20063;-66
2023/10/18 02:13:47;;;;;;;4.38;3.97;;;;;;;;;;5097882;27;20075;-66
2023/10/18 02:16:19;;;;;;;4.93;4.55;;;;;;;;;;5097647;28;20044;-66
2023/10/18 02:18:49;;;;;;;4.68;4.30;;;;;;;;;;5096870;27;20051;-65
2023/10/18 02:21:21;;;;;;;4.88;4.47;;;;;;;;;;5095985;28;20054;-66
2023/10/18 02:23:51;;;;;;;4.57;4.15;;;;;;;;;;5098327;28;20548;-66
2023/10/18 02:26:31;;;;;;;4.70;4.30;;;;;;;;;;5095191;28;20435;-66
2023/10/18 02:29:05;;;;;;;4.22;3.92;;;;;;;;;;5100603;28;20047;-66
2023/10/18 02:31:37;;;;;;;4.63;4.10;;;;;;;;;;5098676;28;20048;-66
2023/10/18 02:34:09;;;;;;;4.45;4.15;;;;;;;;;;5095624;28;20048;-65
2023/10/18 02:36:55;;;;;;;4.50;4.20;;;;;;;;;;5083039;28;20051;-66
2023/10/18 02:39:27;;;;;;;4.53;4.22;;;;;;;;;;5097529;27;20036;-66
2023/10/18 02:41:57;;;;;;;5.35;4.85;;;;;;;;;;5096681;28;20044;-65
2023/10/18 02:44:25;;;;;;;4.40;4.10;;;;;;;;;;5099744;28;20086;-66
2023/10/18 02:47:06;;;;;;;4.70;4.30;;;;;;;;;;5096569;28;20128;-66
2023/10/18 02:49:35;;;;;;;4.63;4.22;;;;;;;;;;5098066;27;20471;-66
2023/10/18 02:52:05;;;;;;;5.00;4.60;;;;;;;;;;5100603;28;20130;-66
2023/10/18 02:54:35;;;;;;;4.63;4.22;;;;;;;;;;5095350;27;20125;-66
2023/10/18 02:57:05;;;;;;;4.40;4.10;;;;;;;;;;5098496;28;20050;-66
2023/10/18 02:59:35;;;;;;;4.47;4.18;;;;;;;;;;5093109;28;20040;-66
2023/10/18 03:02:13;;;;;;;4.45;4.15;;;;;;;;;;5097617;28;20050;-65
2023/10/18 03:04:42;;;;;;;5.00;4.60;;;;;;;;;;5099615;28;20058;-66
2023/10/18 03:07:13;;;;;;;5.05;4.65;;;;;;;;;;5098885;28;20048;-66
2023/10/18 03:09:41;;;;;;;5.30;4.90;;;;;;;;;;5092144;28;20127;-66
2023/10/18 03:12:14;;;;;;;4.65;4.25;;;;;;;;;;5098015;28;20052;-66
2023/10/18 03:14:54;;;;;;;4.60;4.20;;;;;;;;;;5099878;27;20044;-66
2023/10/18 03:17:24;;;;;;;5.10;4.70;;;;;;;;;;5099844;28;20047;-66
2023/10/18 03:19:55;;;;;;;4.22;3.92;;;;;;;;;;5092864;28;20048;-66
2023/10/18 03:22:26;;;;;;;4.68;4.28;;;;;;;;;;5098978;28;20135;-65
2023/10/18 03:24:55;;;;;;;5.03;4.63;;;;;;;;;;5096000;28;20035;-66
2023/10/18 03:27:24;;;;;;;4.80;4.40;;;;;;;;;;5096197;28;20048;-65
2023/10/18 03:29:57;;;;;;;4.63;4.30;;;;;;;;;;5096750;27;20046;-66
2023/10/18 03:32:27;;;;;;;7.00;4.90;;;;;;;;;;5095628;28;20063;-66
2023/10/18 03:34:56;;;;;;;5.28;4.85;;;;;;;;;;5096049;28;20046;-66
2023/10/18 03:37:25;;;;;;;4.72;4.43;;;;;;;;;;5098348;28;20058;-66
2023/10/18 03:39:54;;;;;;;4.55;4.25;;;;;;;;;;5096408;28;20083;-65
2023/10/18 03:42:31;;;;;;;5.13;4.60;;;;;;;;;;5094836;28;20052;-66
2023/10/18 03:45:00;;;;;;;5.18;4.78;;;;;;;;;;5096618;28;21540;-65
2023/10/18 03:47:36;;;;;;;4.75;4.35;;;;;;;;;;5096191;28;20051;-66
2023/10/18 03:50:08;;;;;;;5.00;4.60;;;;;;;;;;5094019;28;20128;-65
2023/10/18 03:52:38;;;;;;;4.53;4.22;;;;;;;;;;5097341;28;20512;-66
2023/10/18 03:55:13;;;;;;;5.10;4.70;;;;;;;;;;5095050;28;20050;-66
2023/10/18 03:57:41;;;;;;;4.82;4.53;;;;;;;;;;5096384;28;20048;-66
2023/10/18 04:00:36;;;;;;;4.97;4.63;;;;;;;;;;5093616;28;20362;-66
2023/10/18 04:03:09;;;;;;;4.53;4.22;;;;;;;;;;5092019;28;20054;-66
2023/10/18 04:05:42;;;;;;;4.90;4.50;;;;;;;;;;5096324;28;20056;-66
2023/10/18 04:08:13;;;;;;;4.65;4.35;;;;;;;;;;5094806;28;20051;-66
2023/10/18 04:10:43;;;;;;;5.15;4.68;;;;;;;;;;5097195;28;20039;-66
2023/10/18 04:13:14;;;;;;;4.63;4.22;;;;;;;;;;5098675;28;20484;-65
2023/10/18 04:15:46;;;;;;;5.32;4.93;;;;;;;;;;5093033;28;20465;-66
2023/10/18 04:18:25;;;;;;;5.18;4.78;;;;;;;;;;5094228;28;20036;-66
2023/10/18 04:20:58;;;;;;;5.22;4.78;;;;;;;;;;5094243;28;20036;-66
2023/10/18 04:23:27;;;;;;;4.38;4.07;;;;;;;;;;5098420;27;20068;-66
2023/10/18 04:26:00;;;;;;;5.50;5.10;;;;;;;;;;5103106;27;20105;-65
2023/10/18 04:28:29;;;;;;;5.15;4.75;;;;;;;;;;5098451;27;20079;-66
2023/10/18 04:31:00;;;;;;;5.20;4.70;;;;;;;;;;5100794;27;20071;-66
2023/10/18 04:33:36;;;;;;;5.32;4.93;;;;;;;;;;5097970;27;20044;-66
2023/10/18 04:36:09;;;;;;;5.50;5.10;;;;;;;;;;5099463;28;20334;-66
2023/10/18 04:38:42;;;;;;;5.85;5.43;;;;;;;;;;5098307;27;20143;-66
2023/10/18 04:41:23;;;;;;;6.32;5.70;;;;;;;;;;5100844;28;20056;-66
2023/10/18 04:43:53;;;;;;;5.90;5.28;;;;;;;;;;5099927;27;20074;-66
2023/10/18 04:46:26;;;;;;;5.95;5.45;;;;;;;;;;5096022;28;20075;-66
2023/10/18 04:51:48;;;;;;;5.72;5.22;;;;;;;;;;5099095;28;20048;-65
2023/10/18 04:54:17;;;;;;;6.97;6.07;;;;;;;;;;5100486;28;20063;-66
2023/10/18 04:56:46;;;;;;;6.20;5.65;;;;;;;;;;5097624;28;20390;-65
2023/10/18 04:59:29;;;;;;;6.63;6.03;;;;;;;;;;5096927;28;20059;-67
2023/10/18 05:01:58;;;;;;;6.72;6.13;;;;;;;;;;5099718;28;20404;-66
2023/10/18 05:04:32;;;;;;;6.25;5.75;;;;;;;;;;5100559;27;20693;-66
2023/10/18 05:07:04;;;;;;;6.18;5.65;;;;;;;;;;5098308;28;20100;-66
2023/10/18 05:09:34;;;;;;;6.32;5.72;;;;;;;;;;5099500;27;20423;-66
2023/10/18 05:12:07;;;;;;;6.72;6.13;;;;;;;;;;5101080;27;20052;-66
2023/10/18 05:14:43;;;;;;;6.53;5.93;;;;;;;;;;5102125;27;20051;-65
2023/10/18 05:17:21;;;;;;;6.93;6.25;;;;;;;;;;5098826;27;20570;-66
2023/10/18 05:19:52;;;;;;;6.95;6.03;;;;;;;;;;5098963;27;20043;-66
2023/10/18 05:22:23;;;;;;;5.95;5.45;;;;;;;;;;5099030;28;20120;-66
2023/10/18 05:25:10;;;;;;;7.28;5.80;;;;;;;;;;5098122;28;20047;-66
2023/10/18 05:27:45;;;;;;;6.15;5.15;;;;;;;;;;5108330;27;20047;-66
2023/10/18 05:30:15;;;;;;;9.15;6.40;;;;;;;;;;5099609;27;20040;-66
2023/10/18 05:32:49;;;;;;;6.93;6.10;;;;;;;;;;5098807;27;20046;-66
2023/10/18 05:35:21;;;;;;;6.20;5.60;;;;;;;;;;5097508;27;20059;-67
2023/10/18 05:37:58;;;;;;;6.18;5.57;;;;;;;;;;5101032;28;20669;-67
2023/10/18 05:40:56;;;;;;;7.20;6.35;;;;;;;;;;5098838;27;20473;-65
2023/10/18 05:43:29;;;;;;;5.85;5.35;;;;;;;;;;5097392;27;20094;-64
2023/10/18 05:46:00;;;;;;;7.60;5.85;;;;;;;;;;5098094;27;20099;-65
2023/10/18 05:48:31;;;;;;;6.45;5.93;;;;;;;;;;5099365;28;20044;-65
2023/10/18 05:51:25;;;;;;;6.10;5.60;;;;;;;;;;5096248;28;20117;-66
2023/10/18 05:54:05;;;;;;;6.37;5.83;;;;;;;;;;5097390;28;20395;-66
2023/10/18 05:56:34;;;;;;;6.65;6.05;;;;;;;;;;5095527;28;20290;-65
2023/10/18 06:02:09;;;;;;;9.32;5.30;;;;;;;;;;5015162;28;20053;-66
2023/10/18 06:04:42;;;;;;;7.90;5.80;;;;;;;;;;5083797;28;20581;-67
2023/10/18 06:07:13;;;;;;;6.65;5.82;;;;;;;;;;5098219;28;20052;-67
2023/10/18 06:09:54;;;;;;;6.60;6.00;;;;;;;;;;5097158;28;20046;-66
2023/10/18 06:12:23;;;;;;;7.05;6.35;;;;;;;;;;5097259;28;20062;-66
2023/10/18 06:14:57;;;;;;;6.55;5.35;;;;;;;;;;5095294;28;20455;-66
2023/10/18 06:17:40;;;;;;;9.00;5.95;;;;;;;;;;5101673;27;20065;-66
2023/10/18 06:20:14;;;;;;;7.15;6.03;;;;;;;;;;5097088;28;20060;-66
2023/10/18 06:22:47;;;;;;;7.47;5.47;;;;;;;;;;5095853;28;20420;-66
2023/10/18 06:25:26;;;;;;;9.20;5.25;;;;;;;;;;5098138;28;20386;-66
2023/10/18 06:27:54;;;;;;;8.20;6.15;;;;;;;;;;5099767;28;20488;-66
2023/10/18 06:30:24;;;;;;;7.28;5.80;;;;;;;;;;5095848;28;20139;-66
2023/10/18 06:32:55;;;;;;;8.50;6.60;;;;;;;;;;5099923;27;20553;-66
2023/10/18 06:35:27;;;;;;;6.53;5.88;;;;;;;;;;5098017;27;20048;-66
2023/10/18 06:37:59;;;;;;;6.45;5.85;;;;;;;;;;5104262;28;20032;-66
2023/10/18 06:40:43;;;;;;;6.82;6.13;;;;;;;;;;5099305;28;20048;-66
2023/10/18 06:43:29;;;;;;;8.57;6.47;;;;;;;;;;5099245;28;20072;-66
2023/10/18 06:45:58;;;;;;;6.18;5.57;;;;;;;;;;5097406;27;20055;-66
2023/10/18 06:48:28;;;;;;;6.68;6.00;;;;;;;;;;5101246;28;20043;-66
2023/10/18 06:50:57;;;;;;;7.72;6.90;;;;;;;;;;5097248;28;20043;-66
2023/10/18 06:53:28;;;;;;;7.05;6.38;;;;;;;;;;5095814;28;20047;-66
2023/10/18 06:55:58;;;;;;;7.10;6.43;;;;;;;;;;5094288;28;20074;-68
2023/10/18 06:58:42;;;;;;;6.70;6.10;;;;;;;;;;5101567;28;20055;-67
2023/10/18 07:01:19;;;;;;;7.07;6.38;;;;;;;;;;5096873;28;20126;-67
2023/10/18 07:03:49;;;;;;;5.65;5.15;;;;;;;;;;5095040;28;20079;-67
2023/10/18 07:06:23;;;;;;;7.07;6.38;;;;;;;;;;5097028;28;20122;-67
2023/10/18 07:08:53;;;;;;;9.45;6.30;;;;;;;;;;5094755;28;20051;-68
2023/10/18 07:11:22;;;;;;;6.80;6.15;;;;;;;;;;5099629;28;20130;-67
2023/10/18 07:14:12;;;;;;;8.82;6.28;;;;;;;;;;5095655;28;21863;-68
2023/10/18 07:16:42;;;;;;;6.65;6.05;;;;;;;;;;5096997;28;20047;-67
2023/10/18 07:19:25;;;;;;;6.88;6.15;;;;;;;;;;5094489;28;20052;-66
2023/10/18 07:21:54;;;;;;;7.05;6.35;;;;;;;;;;5097157;28;20518;-65
2023/10/18 07:24:32;;;;;;;6.70;6.10;;;;;;;;;;5096282;27;20408;-66
2023/10/18 07:27:03;;;;;;;7.03;6.35;;;;;;;;;;5093962;28;20040;-66
2023/10/18 07:29:36;;;;;;;6.13;5.60;;;;;;;;;;5094557;28;20386;-66
2023/10/18 07:32:12;;;;;;;7.75;6.95;;;;;;;;;;5100076;28;20048;-66
2023/10/18 07:34:42;;;;;;;7.05;6.40;;;;;;;;;;5094114;28;20079;-66
2023/10/18 07:37:24;;;;;;;7.00;6.30;;;;;;;;;;5095633;28;20039;-67
2023/10/18 07:39:59;;;;;;;7.80;6.28;;;;;;;;;;5097323;28;20047;-67
2023/10/18 07:42:34;;;;;;;6.60;6.00;;;;;;;;;;5100646;28;20154;-67
2023/10/18 07:45:04;;;;;;;;;;;;;;;;;;5092132;27;20059;-67
2023/10/18 07:47:37;;;;;;;7.30;6.60;;;;;;;;;;5096220;28;19981;-67
2023/10/18 07:50:34;;;;;;;9.02;6.20;;;;;;;;;;5094831;28;20051;-65
2023/10/18 07:52:56;;;;;;;7.82;6.38;;;;;;;;;;5100815;28;20078;-67
2023/10/18 07:55:27;;;;;;;7.72;6.45;;;;;;;;;;5095696;28;20071;-66
2023/10/18 07:57:56;;;;;;;7.18;6.47;;;;;;;;;;5099715;28;20338;-67
2023/10/18 08:00:26;;;;;;;8.05;6.63;;;;;;;;;;5097716;28;20040;-66
2023/10/18 08:02:54;;;;;;;6.88;6.20;;;;;;;;;;5099494;28;20032;-66
2023/10/18 08:05:25;;;;;;;7.43;6.50;;;;;;;;;;5100396;27;20048;-66
2023/10/18 08:07:55;;;;;;;7.88;7.13;;;;;;;;;;5101004;28;20043;-66
2023/10/18 08:10:24;;;;;;;7.78;6.97;;;;;;;;;;5098636;28;20039;-66
2023/10/18 08:15:56;;;;;;;6.57;5.97;;;;;;;;;;5099702;27;20180;-65
2023/10/18 08:18:39;;;;;;;7.80;6.72;;;;;;;;;;5101811;28;20126;-65
2023/10/18 08:21:08;;;;;;;7.10;6.50;;;;;;;;;;5103445;27;20070;-66
2023/10/18 08:23:40;;;;;;;7.43;6.78;;;;;;;;;;5098048;28;20412;-65
2023/10/18 08:26:08;;;;;;;9.18;7.13;;;;;;;;;;5095475;28;20047;-66
2023/10/18 08:28:39;;;;;;;7.38;6.68;;;;;;;;;;5103301;27;20055;-67
2023/10/18 08:31:16;;;;;;;7.70;6.82;;;;;;;;;;5101800;28;20072;-67
2023/10/18 08:33:45;;;;;;;7.60;6.93;;;;;;;;;;5098760;28;20504;-66
2023/10/18 08:36:18;;;;;;;6.57;5.97;;;;;;;;;;5100915;27;20048;-67
2023/10/18 08:38:46;;;;;;;7.18;6.55;;;;;;;;;;5100346;27;20631;-68
2023/10/18 08:41:16;;;;;;;6.60;6.03;;;;;;;;;;5101019;28;20055;-67
2023/10/18 08:43:53;;;;;;;6.47;5.90;;;;;;;;;;5100542;28;20044;-67
2023/10/18 08:46:26;;;;;;;7.40;6.05;;;;;;;;;;5100517;27;20047;-68
2023/10/18 08:48:55;;;;;;;6.22;5.63;;;;;;;;;;5098858;28;20101;-67
2023/10/18 08:51:29;;;;;;;7.10;5.85;;;;;;;;;;5102860;27;20484;-69
2023/10/18 08:53:59;;;;;;;7.20;6.60;;;;;;;;;;5102660;28;20158;-67
2023/10/18 08:56:32;;;;;;;6.82;6.22;;;;;;;;;;5100128;27;20052;-68
2023/10/18 08:59:11;;;;;;;7.30;6.57;;;;;;;;;;5098987;28;20052;-68
2023/10/18 09:02:02;;;;;;;6.97;6.38;;;;;;;;;;5099998;28;20040;-66
2023/10/18 09:04:31;;;;;;;6.88;6.28;;;;;;;;;;5098530;27;20050;-67
2023/10/18 09:07:01;;;;;;;7.40;6.70;;;;;;;;;;5098913;28;20123;-67
2023/10/18 09:09:34;;;;;;;7.68;6.10;;;;;;;;;;5100026;28;20130;-67
2023/10/18 09:12:14;;;;;;;5.90;5.38;;;;;;;;;;5101423;27;20139;-67
2023/10/18 09:14:50;;;;;;;6.45;5.95;;;;;;;;;;5096369;28;20125;-69
2023/10/18 09:17:23;;;;;;;6.70;6.10;;;;;;;;;;5105091;27;20047;-68
2023/10/18 09:19:55;;;;;;;5.93;5.43;;;;;;;;;;5094554;28;20056;-68
2023/10/18 09:22:24;;;;;;;6.65;6.07;;;;;;;;;;5102175;28;20234;-65
2023/10/18 09:25:47;;;;;;;6.10;5.60;;;;;;;;;;5081770;28;20070;-65
2023/10/18 09:28:39;;;;;;;5.85;5.35;;;;;;;;;;5100481;28;20125;-66
2023/10/18 09:31:25;;;;;;;5.22;4.80;;;;;;;;;;5096397;28;20043;-65
2023/10/18 09:34:10;;;;;;;6.97;5.72;;;;;;;;;;5100916;27;20052;-66
2023/10/18 09:36:53;;;;;;;6.03;5.35;;;;;;;;;;5099210;27;20131;-66
2023/10/18 09:39:24;;;;;;;5.68;5.18;;;;;;;;;;5099958;28;20744;-65
2023/10/18 09:41:53;;;;;;;6.78;5.57;;;;;;;;;;5098975;27;20085;-65
2023/10/18 09:44:22;;;;;;;5.78;5.28;;;;;;;;;;5097610;28;20448;-65
2023/10/18 09:46:52;;;;;;;5.65;5.15;;;;;;;;;;5099873;27;20075;-65
2023/10/18 09:49:24;;;;;;;5.88;5.38;;;;;;;;;;5099415;28;20058;-65
2023/10/18 09:51:54;;;;;;;5.97;5.47;;;;;;;;;;5104109;27;20063;-65
2023/10/18 09:54:23;;;;;;;6.38;5.20;;;;;;;;;;5097936;28;20607;-65
2023/10/18 09:56:54;;;;;;;6.00;4.78;;;;;;;;;;5099508;27;20407;-66
2023/10/18 09:59:27;;;;;;;5.43;4.93;;;;;;;;;;5099740;28;20055;-65
2023/10/18 10:02:08;;;;;;;6.78;4.80;;;;;;;;;;5097141;28;20100;-65
2023/10/18 10:04:39;;;;;;;5.88;4.97;;;;;;;;;;5092952;27;20177;-66
2023/10/18 10:07:36;;;;;;;4.78;4.38;;;;;;;;;;5100224;27;20472;-67
2023/10/18 10:10:08;;;;;;;5.32;4.68;;;;;;;;;;5097537;28;20168;-66
2023/10/18 10:12:41;;;;;;;5.57;5.07;;;;;;;;;;5101809;28;20044;-66
2023/10/18 10:15:14;;;;;;;5.38;4.88;;;;;;;;;;5095129;28;20127;-67
2023/10/18 10:17:45;;;;;;;5.65;5.13;;;;;;;;;;5100439;27;20085;-67
2023/10/18 10:20:21;;;;;;;5.78;5.25;;;;;;;;;;5098122;28;20040;-66
2023/10/18 10:22:50;;;;;;;5.28;4.88;;;;;;;;;;5100925;27;20047;-65
2023/10/18 10:25:20;;;;;;;5.20;4.70;;;;;;;;;;5095136;28;20058;-66
2023/10/18 10:28:15;;;;;;;5.45;5.05;;;;;;;;;;5101448;27;20043;-67
2023/10/18 10:30:43;;;;;;;5.15;4.75;;;;;;;;;;5099300;27;20540;-66
2023/10/18 10:33:15;;;;;;;4.88;4.47;;;;;;;;;;5099652;28;20475;-67
2023/10/18 10:35:47;;;;;;;5.50;4.85;;;;;;;;;;5093156;28;20463;-67
2023/10/18 10:38:22;;;;;;;5.82;5.30;;;;;;;;;;5099248;27;20138;-66
2023/10/18 10:41:19;;;;;;;5.18;4.78;;;;;;;;;;5098199;28;20036;-67
2023/10/18 10:44:11;;;;;;;5.37;4.90;;;;;;;;;;5100049;28;20155;-67
2023/10/18 10:46:40;;;;;;;6.38;5.78;;;;;;;;;;5097507;27;20355;-66
2023/10/18 10:49:28;;;;;;;6.25;5.70;;;;;;;;;;5093358;28;20071;-66
2023/10/18 10:51:58;;;;;;;5.50;5.00;;;;;;;;;;5101560;27;20139;-66
2023/10/18 10:54:29;;;;;;;5.03;4.63;;;;;;;;;;5089080;27;20056;-66
2023/10/18 10:57:03;;;;;;;5.53;4.78;;;;;;;;;;5075348;28;20039;-66
2023/10/18 10:59:41;;;;;;;6.28;5.68;;;;;;;;;;5076038;28;20041;-66
2023/10/18 11:02:11;;;;;;;5.88;5.38;;;;;;;;;;5075204;28;20055;-66
2023/10/18 11:04:49;;;;;;;5.78;5.28;;;;;;;;;;5076078;28;20097;-66
2023/10/18 11:07:22;;;;;;;5.82;5.35;;;;;;;;;;5076099;28;20578;-66
2023/10/18 11:09:59;;;;;;;5.78;5.20;;;;;;;;;;5076146;28;20094;-66
2023/10/18 11:12:29;;;;;;;6.20;5.53;;;;;;;;;;5075126;28;20056;-66
2023/10/18 11:15:00;;;;;;;6.07;5.55;;;;;;;;;;5072204;28;20181;-66
2023/10/18 11:17:29;;;;;;;5.15;4.75;;;;;;;;;;5080042;28;20132;-67
2023/10/18 11:19:59;;;;;;;5.05;4.65;;;;;;;;;;5076541;28;20084;-66
2023/10/18 11:22:31;;;;;;;5.22;4.80;;;;;;;;;;5080918;28;20145;-66
2023/10/18 11:25:00;;;;;;;5.20;4.80;;;;;;;;;;5077363;28;20671;-66
2023/10/18 11:27:33;;;;;;;5.38;4.90;;;;;;;;;;5075148;28;20044;-65
2023/10/18 11:30:16;;;;;;;5.20;4.80;;;;;;;;;;5072844;28;20048;-64
2023/10/18 11:32:46;;;;;;;6.22;5.07;;;;;;;;;;5076377;28;20060;-65
2023/10/18 11:35:19;;;;;;;4.82;4.50;;;;;;;;;;5073919;28;20053;-65
2023/10/18 11:37:51;;;;;;;4.95;4.55;;;;;;;;;;5074091;28;20678;-66
2023/10/18 11:40:21;;;;;;;4.53;4.13;;;;;;;;;;5073743;28;20101;-66
2023/10/18 11:42:54;;;;;;;5.13;4.70;;;;;;;;;;5083299;28;20040;-68
2023/10/18 11:45:27;;;;;;;5.13;4.72;;;;;;;;;;5070523;28;20567;-67
2023/10/18 11:47:59;;;;;;;5.60;5.10;;;;;;;;;;5080397;28;20071;-67
2023/10/18 11:50:39;;;;;;;4.78;4.30;;;;;;;;;;5073390;28;20044;-67
2023/10/18 11:53:15;;;;;;;4.75;4.35;;;;;;;;;;5079524;28;20071;-67
2023/10/18 11:55:56;;;;;;;4.60;4.30;;;;;;;;;;5096399;28;20055;-67
2023/10/18 11:58:25;;;;;;;4.78;4.32;;;;;;;;;;5095288;28;20399;-67
2023/10/18 12:00:58;;;;;;;5.32;4.90;;;;;;;;;;5103607;28;20395;-68
2023/10/18 12:03:27;;;;;;;5.03;4.63;;;;;;;;;;5098026;28;20105;-67
2023/10/18 12:05:57;;;;;;;5.00;4.60;;;;;;;;;;5098368;28;20549;-66
2023/10/18 12:08:30;;;;;;;4.78;4.38;;;;;;;;;;5097604;28;20040;-67
2023/10/18 12:10:59;;;;;;;4.90;4.45;;;;;;;;;;5098720;28;20044;-67
2023/10/18 12:13:27;;;;;;;4.80;4.40;;;;;;;;;;5096701;28;20348;-68
2023/10/18 12:16:00;;;;;;;4.80;4.40;;;;;;;;;;5098295;28;20593;-67
2023/10/18 12:18:29;;;;;;;4.82;4.43;;;;;;;;;;5095245;28;20058;-67
2023/10/18 12:20:57;;;;;;;4.53;4.18;;;;;;;;;;5094217;28;20484;-67
2023/10/18 12:23:27;;;;;;;4.82;4.43;;;;;;;;;;5097225;28;20107;-67
2023/10/18 12:25:59;;;;;;;4.45;4.05;;;;;;;;;;5100490;27;20230;-66
2023/10/18 12:28:28;;;;;;;5.65;4.13;;;;;;;;;;5098976;28;20059;-67
2023/10/18 12:31:00;;;;;;;5.07;4.20;;;;;;;;;;5096640;28;20039;-66
2023/10/18 12:33:33;;;;;;;4.25;3.95;;;;;;;;;;5099147;28;20066;-66
2023/10/18 12:36:01;;;;;;;4.60;4.20;;;;;;;;;;5096352;28;20072;-68
2023/10/18 12:38:32;;;;;;;3.83;3.53;;;;;;;;;;5097775;28;20063;-69
2023/10/18 12:41:06;;;;;;;4.68;4.28;;;;;;;;;;5095160;28;20122;-68
2023/10/18 12:43:38;;;;;;;3.97;3.67;;;;;;;;;;5092249;28;20052;-68
2023/10/18 12:46:07;;;;;;;4.20;3.85;;;;;;;;;;5100200;27;20051;-67
2023/10/18 12:48:36;;;;;;;4.72;4.32;;;;;;;;;;5098803;28;20052;-67
2023/10/18 12:51:09;;;;;;;4.22;3.88;;;;;;;;;;5103887;28;20035;-67
2023/10/18 12:53:41;;;;;;;4.53;4.15;;;;;;;;;;5099398;27;20051;-68
2023/10/18 12:56:30;;;;;;;3.95;3.65;;;;;;;;;;5102492;28;20058;-66
2023/10/18 12:59:11;;;;;;;4.25;3.95;;;;;;;;;;5098503;28;20518;-68
2023/10/18 13:01:44;;;;;;;4.43;4.03;;;;;;;;;;5104411;27;20043;-67
2023/10/18 13:04:17;;;;;;;4.25;3.95;;;;;;;;;;5104904;27;20050;-68
2023/10/18 13:06:46;;;;;;;4.18;3.78;;;;;;;;;;5082234;27;20044;-68
2023/10/18 13:09:18;;;;;;;4.03;3.72;;;;;;;;;;5105546;27;20551;-68
2023/10/18 13:11:46;;;;;;;4.20;3.90;;;;;;;;;;5101331;28;20500;-68
2023/10/18 13:14:23;;;;;;;4.20;3.90;;;;;;;;;;5099055;28;20554;-68
2023/10/18 13:16:53;;;;;;;4.45;4.15;;;;;;;;;;5101619;28;20052;-67
2023/10/18 13:19:23;;;;;;;3.90;3.60;;;;;;;;;;5100590;28;20050;-68
2023/10/18 13:21:54;;;;;;;4.30;3.90;;;;;;;;;;5104104;27;20054;-69
2023/10/18 13:24:31;;;;;;;4.22;3.92;;;;;;;;;;5102915;27;20066;-66
2023/10/18 13:27:00;;;;;;;4.30;4.00;;;;;;;;;;5097147;27;20447;-66
2023/10/18 13:29:32;;;;;;;4.53;4.13;;;;;;;;;;5104137;27;20050;-68
2023/10/18 13:32:06;;;;;;;4.03;3.72;;;;;;;;;;5103118;28;20456;-69
2023/10/18 13:34:39;;;;;;;4.05;3.75;;;;;;;;;;5101208;27;20071;-67
2023/10/18 13:37:12;;;;;;;3.83;3.53;;;;;;;;;;5102321;28;20062;-67
2023/10/18 13:39:47;;;;;;;4.15;3.75;;;;;;;;;;5104809;27;20043;-67
2023/10/18 13:42:18;;;;;;;3.88;3.58;;;;;;;;;;5095945;28;20040;-67
2023/10/18 13:44:49;;;;;;;3.63;3.42;;;;;;;;;;5098034;28;20063;-67
2023/10/18 13:47:18;;;;;;;3.40;3.20;;;;;;;;;;5096753;27;20459;-68
2023/10/18 13:49:48;;;;;;;3.38;3.17;;;;;;;;;;5103273;27;20388;-68
2023/10/18 13:52:17;;;;;;;3.95;3.50;;;;;;;;;;5101619;27;20040;-68
2023/10/18 13:54:47;;;;;;;5.20;4.80;;;;;;;;;;5096351;27;20054;-67
2023/10/18 13:57:17;;;;;;;5.13;4.63;;;;;;;;;;5101226;28;20093;-67
2023/10/18 13:59:45;;;;;;;4.00;3.70;;;;;;;;;;5096855;28;20044;-67
2023/10/18 14:02:17;;;;;;;3.95;3.63;;;;;;;;;;5095357;28;20051;-68
2023/10/18 14:04:46;;;;;;;3.85;3.60;;;;;;;;;;5097945;28;20043;-68
2023/10/18 14:07:15;;;;;;;4.47;4.07;;;;;;;;;;5099790;28;20385;-68
2023/10/18 14:09:44;;;;;;;3.95;3.65;;;;;;;;;;5098005;28;21805;-68
2023/10/18 14:12:14;;;;;;;7.03;3.75;;;;;;;;;;5095922;27;20136;-68
2023/10/18 14:14:42;;;;;;;3.83;3.53;;;;;;;;;;5096575;28;20568;-68
2023/10/18 14:17:12;;;;;;;3.42;3.13;;;;;;;;;;5094420;28;20080;-68
2023/10/18 14:19:43;;;;;;;3.72;3.42;;;;;;;;;;5097603;28;20501;-68
2023/10/18 14:22:12;;;;;;;3.92;3.63;;;;;;;;;;5093910;27;20142;-68
2023/10/18 14:24:40;;;;;;;3.20;3.00;;;;;;;;;;5099017;28;20048;-70
2023/10/18 14:27:09;;;;;;;3.45;3.25;;;;;;;;;;5101217;27;20112;-72
2023/10/18 14:29:39;;;;;;;3.67;3.38;;;;;;;;;;5098580;27;20040;-70
2023/10/18 14:32:08;;;;;;;3.90;3.60;;;;;;;;;;5101133;28;20051;-70
2023/10/18 14:34:38;;;;;;;4.63;4.22;;;;;;;;;;5095503;28;20327;-70
2023/10/18 14:37:08;;;;;;;4.18;3.80;;;;;;;;;;5101450;27;20055;-69
2023/10/18 14:39:36;;;;;;;5.15;4.65;;;;;;;;;;5099854;28;20485;-70
2023/10/18 14:42:08;;;;;;;4.20;3.80;;;;;;;;;;5097320;27;20423;-70
2023/10/18 14:44:37;;;;;;;6.20;5.30;;;;;;;;;;5095811;28;20154;-72
2023/10/18 14:47:08;;;;;;;7.05;6.35;;;;;;;;;;5097023;27;20112;-70
2023/10/18 14:49:39;;;;;;;10.07;7.93;;;;;;;;;;5097789;28;20108;-70
2023/10/18 14:52:11;;;;;;;6.38;5.78;;;;;;;;;;5099769;28;20062;-70
2023/10/18 14:54:42;;;;;;;7.38;6.68;;;;;;;;;;5094649;28;20047;-69
2023/10/18 14:57:10;;;;;;;5.53;5.03;;;;;;;;;;5098517;28;20079;-72
2023/10/18 14:59:39;;;;;;;5.47;4.97;;;;;;;;;;5097440;28;20136;-70
2023/10/18 15:02:12;;;;;;;4.40;4.00;;;;;;;;;;5096008;28;20059;-69
2023/10/18 15:04:41;;;;;;;13.85;10.48;;;;;;;;;;5093405;28;20043;-72
2023/10/18 15:07:12;;;;;;;9.20;7.55;;;;;;;;;;5098906;27;20096;-70
2023/10/18 15:09:41;;;;;;;4.60;4.20;;;;;;;;;;5097441;28;20055;-68
2023/10/18 15:12:10;;;;;;;4.55;4.05;;;;;;;;;;5096817;28;20062;-69
2023/10/18 15:14:42;;;;;;;5.57;4.65;;;;;;;;;;5098861;27;20432;-69
2023/10/18 15:17:12;;;;;;;4.18;3.88;;;;;;;;;;5098242;27;20093;-70
2023/10/18 15:19:40;;;;;;;4.57;3.92;;;;;;;;;;5096458;28;20131;-70
2023/10/18 15:22:11;;;;;;;6.50;4.70;;;;;;;;;;5100399;28;20097;-70
2023/10/18 15:24:41;;;;;;;6.00;4.40;;;;;;;;;;5092602;28;20048;-71